TimeCST,TemperatureF,Dew PointF,Humidity,Sea Level PressureIn,VisibilityMPH,Wind Direction,Wind SpeedMPH,Gust SpeedMPH,PrecipitationIn,Events,Conditions,WindDirDegrees,DateUTC
12:15 AM,21.9,20.5,94,30.15,7.0,Calm,Calm,-,N/A,,Overcast,0,2013-02-25 06:15:00
12:35 AM,23.0,21.2,93,30.14,10.0,Calm,Calm,-,N/A,,Overcast,0,2013-02-25 06:35:00
12:55 AM,20.3,18.3,92,30.14,10.0,Calm,Calm,-,N/A,,Overcast,0,2013-02-25 06:55:00
1:15 AM,21.4,19.6,93,30.14,10.0,Calm,Calm,-,N/A,,Overcast,0,2013-02-25 07:15:00
1:35 AM,20.3,18.3,92,30.15,10.0,Calm,Calm,-,N/A,,Mostly Cloudy,0,2013-02-25 07:35:00
1:55 AM,18.7,16.5,91,30.14,7.0,Calm,Calm,-,N/A,,Mostly Cloudy,0,2013-02-25 07:55:00
2:15 AM,19.2,17.4,93,30.15,7.0,Calm,Calm,-,N/A,,Overcast,0,2013-02-25 08:15:00
2:35 AM,19.2,17.2,92,30.15,7.0,Calm,Calm,-,N/A,,Overcast,0,2013-02-25 08:35:00
2:55 AM,18.7,16.7,92,30.15,7.0,Calm,Calm,-,N/A,,Overcast,0,2013-02-25 08:55:00
3:15 AM,19.6,18.1,94,30.14,7.0,Calm,Calm,-,N/A,,Overcast,0,2013-02-25 09:15:00
3:35 AM,18.3,16.5,93,30.14,7.0,East,3.5,-,N/A,,Overcast,90,2013-02-25 09:35:00
3:55 AM,17.6,15.8,93,30.14,7.0,Calm,Calm,-,N/A,,Overcast,0,2013-02-25 09:55:00
4:15 AM,18.5,17.1,94,30.15,7.0,Calm,Calm,-,N/A,,Overcast,0,2013-02-25 10:15:00
4:35 AM,18.5,16.7,93,30.16,7.0,Calm,Calm,-,N/A,,Overcast,0,2013-02-25 10:35:00
4:55 AM,19.9,18.3,93,30.16,7.0,Calm,Calm,-,N/A,,Overcast,0,2013-02-25 10:55:00
5:15 AM,20.5,19.0,94,30.16,7.0,East,3.5,-,N/A,,Overcast,90,2013-02-25 11:15:00
5:35 AM,19.6,18.1,94,30.16,7.0,East,3.5,-,N/A,,Mostly Cloudy,100,2013-02-25 11:35:00
5:55 AM,19.8,18.3,94,30.16,5.0,East,3.5,-,N/A,,Mostly Cloudy,100,2013-02-25 11:55:00
6:15 AM,19.8,18.3,94,30.17,5.0,Calm,Calm,-,N/A,,Scattered Clouds,0,2013-02-25 12:15:00
6:35 AM,18.9,17.4,94,30.18,7.0,Calm,Calm,-,N/A,,Scattered Clouds,0,2013-02-25 12:35:00
6:55 AM,19.9,18.7,95,30.19,5.0,Calm,Calm,-,N/A,,Clear,0,2013-02-25 12:55:00
7:15 AM,21.9,20.8,96,30.19,7.0,Calm,Calm,-,N/A,,Clear,0,2013-02-25 13:15:00
7:35 AM,23.2,21.9,95,30.18,7.0,Calm,Calm,-,N/A,,Clear,0,2013-02-25 13:35:00
7:55 AM,25.5,23.5,92,30.18,7.0,Calm,Calm,-,N/A,,Clear,0,2013-02-25 13:55:00
8:15 AM,27.5,23.7,86,30.17,7.0,ESE,4.6,-,N/A,,Clear,120,2013-02-25 14:15:00
8:35 AM,28.9,23.9,81,30.16,7.0,ESE,4.6,-,N/A,,Clear,120,2013-02-25 14:35:00
8:55 AM,30.7,24.4,77,30.16,10.0,ESE,5.8,-,N/A,,Clear,110,2013-02-25 14:55:00
9:15 AM,32.0,24.3,73,30.16,10.0,SE,5.8,-,N/A,,Clear,140,2013-02-25 15:15:00
9:35 AM,32.9,24.1,70,30.16,10.0,SE,6.9,-,N/A,,Clear,130,2013-02-25 15:35:00
9:55 AM,34.0,24.6,69,30.16,10.0,SE,5.8,-,N/A,,Clear,130,2013-02-25 15:55:00
10:15 AM,34.9,24.8,67,30.16,10.0,SE,5.8,-,N/A,,Clear,130,2013-02-25 16:15:00
10:35 AM,36.0,25.5,66,30.15,10.0,ESE,9.2,-,N/A,,Clear,120,2013-02-25 16:35:00
10:55 AM,36.5,25.0,63,30.15,10.0,ESE,10.4,-,N/A,,Clear,120,2013-02-25 16:55:00
11:15 AM,36.7,23.5,59,30.14,10.0,SE,4.6,-,N/A,,Clear,130,2013-02-25 17:15:00
11:35 AM,37.0,23.5,58,30.14,10.0,SSE,4.6,-,N/A,,Clear,150,2013-02-25 17:35:00
12:15 PM,38.5,24.8,58,30.14,10.0,ESE,8.1,-,N/A,,Clear,120,2013-02-25 18:15:00
12:35 PM,39.2,25.5,58,30.14,10.0,ESE,6.9,-,N/A,,Clear,110,2013-02-25 18:35:00
12:55 PM,39.2,24.8,56,30.12,10.0,SE,5.8,-,N/A,,Clear,130,2013-02-25 18:55:00
1:15 PM,39.4,26.6,60,30.11,10.0,East,6.9,-,N/A,,Clear,100,2013-02-25 19:15:00
1:35 PM,39.6,27.1,61,30.10,10.0,East,8.1,-,N/A,,Clear,80,2013-02-25 19:35:00
1:55 PM,40.1,27.0,59,30.10,10.0,ESE,8.1,-,N/A,,Clear,110,2013-02-25 19:55:00
2:15 PM,39.9,26.1,58,30.08,10.0,East,10.4,-,N/A,,Clear,100,2013-02-25 20:15:00
2:35 PM,40.1,26.8,59,30.08,10.0,ESE,10.4,-,N/A,,Clear,110,2013-02-25 20:35:00
2:55 PM,39.9,26.4,59,30.08,10.0,ESE,8.1,-,N/A,,Clear,110,2013-02-25 20:55:00
3:15 PM,39.7,26.8,60,30.08,10.0,East,9.2,-,N/A,,Clear,100,2013-02-25 21:15:00
3:35 PM,39.9,27.1,60,30.08,10.0,ESE,9.2,-,N/A,,Clear,110,2013-02-25 21:35:00
3:55 PM,39.6,27.3,62,30.08,10.0,East,8.1,-,N/A,,Clear,100,2013-02-25 21:55:00
4:15 PM,38.7,27.1,63,30.08,10.0,East,6.9,-,N/A,,Clear,90,2013-02-25 22:15:00
4:35 PM,37.6,26.8,65,30.06,10.0,ENE,6.9,-,N/A,,Clear,70,2013-02-25 22:35:00
4:55 PM,36.1,26.6,68,30.06,10.0,East,8.1,-,N/A,,Clear,80,2013-02-25 22:55:00
5:15 PM,34.9,26.6,72,30.06,10.0,East,6.9,-,N/A,,Clear,80,2013-02-25 23:15:00
5:35 PM,34.2,26.6,74,30.05,10.0,ENE,6.9,-,N/A,,Clear,70,2013-02-25 23:35:00
5:55 PM,34.2,26.6,74,30.05,10.0,ENE,6.9,-,N/A,,Scattered Clouds,70,2013-02-25 23:55:00
6:15 PM,33.8,26.6,75,30.05,10.0,East,6.9,-,N/A,,Scattered Clouds,80,2013-02-26 00:15:00
6:35 PM,34.0,26.6,74,30.05,10.0,East,6.9,-,N/A,,Scattered Clouds,80,2013-02-26 00:35:00
6:55 PM,34.7,26.2,71,30.03,10.0,ENE,9.2,-,N/A,,Clear,70,2013-02-26 00:55:00
7:15 PM,34.5,26.2,72,30.01,10.0,ENE,10.4,-,N/A,,Clear,60,2013-02-26 01:15:00
7:35 PM,33.8,25.9,73,30.02,10.0,East,8.1,-,N/A,,Scattered Clouds,80,2013-02-26 01:35:00
7:55 PM,32.7,26.2,77,30.01,10.0,East,6.9,-,N/A,,Scattered Clouds,80,2013-02-26 01:55:00
8:15 PM,32.5,26.2,78,30.00,10.0,ENE,8.1,-,N/A,,Scattered Clouds,70,2013-02-26 02:15:00
8:35 PM,32.4,26.1,78,30.02,10.0,ENE,6.9,-,N/A,,Scattered Clouds,70,2013-02-26 02:35:00
8:55 PM,32.9,26.2,76,30.03,10.0,ENE,8.1,-,N/A,,Scattered Clouds,70,2013-02-26 02:55:00
9:15 PM,32.0,26.2,79,30.04,10.0,East,6.9,-,N/A,,Scattered Clouds,100,2013-02-26 03:15:00
9:55 PM,31.8,26.2,80,30.03,10.0,East,8.1,-,N/A,,Scattered Clouds,80,2013-02-26 03:55:00
10:15 PM,32.0,25.7,78,30.02,10.0,ENE,9.2,-,N/A,,Scattered Clouds,70,2013-02-26 04:15:00
10:35 PM,32.0,25.7,78,30.01,10.0,ENE,10.4,-,N/A,,Scattered Clouds,70,2013-02-26 04:35:00
10:55 PM,32.0,25.7,78,30.01,10.0,ENE,10.4,-,N/A,,Mostly Cloudy,70,2013-02-26 04:55:00
11:15 PM,32.0,25.7,78,29.99,10.0,East,11.5,-,N/A,,Scattered Clouds,80,2013-02-26 05:15:00
11:35 PM,31.8,25.7,78,29.98,10.0,ENE,10.4,16.1,N/A,,Scattered Clouds,70,2013-02-26 05:35:00
11:55 PM,31.6,25.7,79,29.97,10.0,ENE,11.5,16.1,N/A,,Scattered Clouds,70,2013-02-26 05:55:00